createdAt,value
2022-11-17T00:00:44.610Z,14.20
2022-11-17T00:03:15.881Z,14.61
2022-11-17T00:05:47.294Z,14.15
2022-11-17T00:08:16.275Z,14.24
2022-11-17T00:10:44.524Z,14.47
2022-11-17T00:13:32.790Z,14.47
2022-11-17T00:16:01.132Z,14.59
2022-11-17T00:18:47.291Z,14.47
2022-11-17T00:21:21.807Z,14.64
2022-11-17T00:23:50.932Z,14.45
2022-11-17T00:26:22.073Z,14.64
2022-11-17T00:28:57.899Z,14.57
2022-11-17T00:31:45.354Z,14.20
2022-11-17T00:34:17.685Z,14.64
2022-11-17T00:36:48.132Z,14.50
2022-11-17T00:39:18.033Z,14.35
2022-11-17T00:41:46.569Z,14.28
2022-11-17T00:44:35.461Z,14.31
2022-11-17T00:47:11.997Z,14.71
2022-11-17T00:49:40.750Z,14.48
2022-11-17T01:00:21.780Z,14.48
2022-11-17T01:03:17.851Z,14.33
2022-11-17T01:06:09.614Z,14.34
2022-11-17T01:08:51.256Z,14.73
2022-11-17T01:11:28.403Z,14.35
2022-11-17T01:14:51.124Z,14.75
2022-11-17T01:17:52.853Z,14.37
2022-11-17T01:20:30.118Z,14.79
2022-11-17T01:23:04.853Z,14.79
2022-11-17T01:25:43.985Z,14.78
2022-11-17T01:28:41.888Z,14.55
2022-11-17T01:31:18.229Z,14.48
2022-11-17T01:34:11.347Z,14.59
2022-11-17T01:37:08.861Z,14.68
2022-11-17T01:39:44.556Z,14.40
2022-11-17T01:42:37.069Z,14.41
2022-11-17T01:45:07.496Z,14.40
2022-11-17T01:47:52.722Z,14.35
2022-11-17T01:50:39.357Z,14.82
2022-11-17T01:53:40.502Z,14.42
2022-11-17T01:56:30.603Z,14.38
2022-11-17T01:59:12.866Z,14.65
2022-11-17T02:01:57.495Z,14.32
2022-11-17T02:04:36.658Z,14.57
2022-11-17T02:07:29.057Z,14.36
2022-11-17T02:10:00.453Z,14.36
2022-11-17T02:12:40.738Z,14.70
2022-11-17T02:15:36.105Z,14.71
2022-11-17T04:08:04.302Z,14.14
2022-11-17T04:10:52.786Z,14.24
2022-11-17T04:13:38.572Z,14.56
2022-11-17T04:16:06.545Z,14.66
2022-11-17T04:18:39.644Z,14.51
2022-11-17T04:21:13.455Z,14.48
2022-11-17T04:23:43.444Z,14.23
2022-11-17T04:26:29.848Z,14.28
2022-11-17T04:28:57.947Z,14.49
2022-11-17T04:31:28.013Z,14.58
2022-11-17T04:33:59.618Z,14.04
2022-11-17T04:36:29.666Z,14.10
2022-11-17T04:39:09.931Z,14.50
2022-11-17T04:42:02.490Z,14.18
2022-11-17T04:44:33.063Z,14.22
2022-11-17T04:47:12.246Z,13.95
2022-11-17T04:49:44.724Z,14.23
2022-11-17T04:52:17.823Z,13.92
2022-11-17T04:54:50.813Z,14.10
2022-11-17T04:57:19.467Z,13.96
2022-11-17T04:59:47.673Z,14.21
2022-11-17T05:02:18.235Z,13.78
2022-11-17T05:04:58.822Z,13.87
2022-11-17T05:07:29.467Z,13.67
2022-11-17T05:09:59.652Z,13.89
2022-11-17T05:12:45.664Z,13.85
2022-11-17T05:15:39.233Z,14.07
2022-11-17T05:18:11.544Z,13.90
2022-11-17T05:20:46.895Z,14.00
2022-11-17T05:23:32.547Z,14.07
2022-11-17T05:26:02.550Z,14.08
2022-11-17T05:28:35.058Z,13.90
2022-11-17T05:31:03.789Z,13.94
2022-11-17T05:33:37.882Z,13.57
2022-11-17T05:36:07.335Z,13.55
2022-11-17T05:38:41.206Z,13.66
2022-11-17T05:41:11.194Z,13.58
2022-11-17T05:43:44.680Z,13.57
2022-11-17T05:46:15.314Z,13.58
2022-11-17T05:48:48.462Z,13.61
2022-11-17T05:51:17.168Z,13.57
2022-11-17T05:53:48.407Z,13.48
2022-11-17T05:56:46.522Z,13.34
2022-11-17T06:05:15.670Z,13.66
2022-11-17T06:07:48.679Z,13.42
2022-11-17T06:10:19.943Z,13.53
2022-11-17T06:12:52.417Z,13.55
2022-11-17T06:15:27.556Z,13.35
2022-11-17T06:20:52.299Z,13.48
2022-11-17T06:23:33.494Z,13.27
2022-11-17T06:26:06.589Z,13.61
2022-11-17T06:28:41.551Z,13.40
2022-11-17T06:31:13.973Z,13.32
2022-11-17T06:33:47.696Z,13.31
2022-11-17T06:36:21.294Z,13.39
2022-11-17T06:38:51.665Z,13.55
2022-11-17T06:41:20.558Z,13.30
2022-11-17T06:43:52.064Z,13.47
2022-11-17T06:46:21.389Z,13.55
2022-11-17T06:48:54.559Z,13.41
2022-11-17T06:51:26.044Z,13.39
2022-11-17T06:53:54.587Z,13.07
2022-11-17T06:56:24.196Z,13.51
2022-11-17T06:59:02.243Z,13.36
2022-11-17T07:01:30.886Z,13.17
2022-11-17T07:04:00.322Z,13.06
2022-11-17T07:06:29.034Z,13.41
2022-11-17T07:08:57.806Z,13.26
2022-11-17T07:14:42.026Z,13.16
2022-11-17T07:17:20.521Z,13.15
2022-11-17T07:19:53.705Z,13.02
2022-11-17T07:22:31.993Z,13.38
2022-11-17T07:24:59.955Z,13.28
2022-11-17T07:27:31.379Z,12.94
2022-11-17T07:30:07.722Z,13.20
2022-11-17T07:49:21.008Z,13.44
2022-11-17T07:52:04.627Z,13.02
2022-11-17T07:54:35.733Z,13.05
2022-11-17T07:57:05.027Z,13.23
2022-11-17T07:59:36.202Z,12.98
2022-11-17T08:02:39.361Z,13.06
2022-11-17T08:05:18.267Z,13.43
2022-11-17T08:07:57.081Z,13.22
2022-11-17T08:10:33.616Z,13.15
2022-11-17T08:21:34.058Z,13.11
2022-11-17T08:24:06.967Z,13.56
2022-11-17T08:26:41.889Z,13.14
2022-11-17T08:29:17.226Z,13.18
2022-11-17T08:31:47.995Z,13.30
2022-11-17T08:34:20.124Z,13.50
2022-11-17T08:36:51.482Z,13.17
2022-11-17T08:39:23.310Z,13.65
2022-11-17T08:41:54.470Z,13.45
2022-11-17T08:44:22.914Z,13.43
2022-11-17T08:46:51.573Z,13.70
2022-11-17T08:49:20.881Z,13.67
2022-11-17T08:51:48.987Z,13.67
2022-11-17T08:54:18.167Z,13.78
2022-11-17T08:56:46.662Z,13.81
2022-11-17T08:59:15.589Z,13.81
2022-11-17T09:01:43.989Z,13.85
2022-11-17T09:04:12.019Z,13.81
2022-11-17T09:06:43.037Z,14.05
2022-11-17T09:09:11.531Z,13.92
2022-11-17T09:11:39.514Z,14.06
2022-11-17T09:14:08.398Z,13.97
2022-11-17T09:16:36.750Z,13.93
2022-11-17T09:19:04.702Z,13.78
2022-11-17T09:21:33.892Z,13.78
2022-11-17T09:24:03.667Z,13.66
2022-11-17T09:26:31.674Z,13.82
2022-11-17T09:29:02.321Z,13.97
2022-11-17T09:31:31.524Z,14.02
2022-11-17T09:34:03.807Z,13.93
2022-11-17T09:36:33.104Z,13.93
2022-11-17T09:39:01.219Z,13.84
2022-11-17T09:41:35.692Z,13.87
2022-11-17T09:44:16.909Z,14.04
2022-11-17T09:47:02.009Z,14.06
2022-11-17T09:49:41.896Z,14.10
2022-11-17T09:52:17.054Z,13.91
2022-11-17T09:54:50.906Z,14.15
2022-11-17T09:57:30.300Z,14.07
2022-11-17T10:00:06.223Z,14.31
2022-11-17T10:02:34.365Z,14.32
2022-11-17T10:05:02.529Z,14.38
2022-11-17T10:07:33.343Z,14.37
2022-11-17T10:10:03.502Z,14.13
2022-11-17T10:12:40.301Z,14.47
2022-11-17T10:15:22.610Z,14.48
2022-11-17T10:17:55.847Z,14.13
2022-11-17T10:20:24.265Z,14.23
2022-11-17T10:22:55.065Z,14.34
2022-11-17T10:25:38.382Z,14.27
2022-11-17T10:28:10.383Z,14.28
2022-11-17T10:30:38.579Z,14.16
2022-11-17T10:33:06.375Z,14.26
2022-11-17T10:35:36.289Z,14.25
2022-11-17T10:38:07.158Z,14.13
2022-11-17T10:40:49.914Z,14.07
2022-11-17T10:43:24.772Z,14.18
2022-11-17T10:45:55.687Z,14.13
2022-11-17T10:48:28.946Z,14.06
2022-11-17T10:50:58.677Z,14.14
2022-11-17T10:53:43.039Z,13.81
2022-11-17T10:56:15.726Z,13.87
2022-11-17T10:59:15.502Z,14.15
2022-11-17T11:01:45.560Z,14.14
2022-11-17T11:04:30.276Z,14.09
2022-11-17T11:07:13.186Z,14.07
2022-11-17T11:09:51.310Z,14.13
2022-11-17T11:12:26.124Z,14.11
2022-11-17T11:14:58.758Z,14.21
2022-11-17T11:17:29.197Z,13.96
2022-11-17T11:19:58.013Z,14.27
2022-11-17T11:22:36.626Z,14.06
2022-11-17T11:25:15.856Z,14.22
2022-11-17T11:27:57.803Z,14.31
2022-11-17T11:30:28.336Z,14.16
2022-11-17T11:33:08.207Z,14.28
2022-11-17T11:35:56.315Z,14.37
2022-11-17T11:38:45.043Z,14.46
2022-11-17T11:41:24.570Z,14.37
2022-11-17T11:44:07.568Z,14.42
2022-11-17T11:46:47.382Z,14.57
2022-11-17T11:49:24.047Z,14.57
2022-11-17T11:51:56.794Z,14.58
2022-11-17T11:54:33.923Z,14.60
2022-11-17T11:57:02.181Z,14.57
2022-11-17T11:59:42.131Z,14.62
2022-11-17T12:02:26.703Z,14.63
2022-11-17T12:05:05.669Z,14.63
2022-11-17T12:07:41.676Z,14.62
2022-11-17T12:10:18.994Z,14.50
2022-11-17T12:12:48.285Z,14.61
2022-11-17T12:15:37.088Z,14.60
2022-11-17T12:18:13.188Z,14.52
2022-11-17T12:20:55.406Z,14.68
2022-11-17T12:23:50.662Z,14.68
2022-11-17T12:26:25.178Z,14.71
2022-11-17T12:29:29.277Z,14.65
2022-11-17T12:31:59.115Z,14.70
2022-11-17T12:34:31.696Z,14.63
2022-11-17T12:37:23.295Z,14.72
2022-11-17T12:40:06.690Z,14.77
2022-11-17T12:42:36.534Z,14.76
2022-11-17T12:45:07.508Z,14.79
2022-11-17T12:47:37.605Z,14.63
2022-11-17T12:50:27.721Z,14.76
2022-11-17T12:53:07.671Z,14.82
2022-11-17T12:55:49.203Z,14.74
2022-11-17T12:58:24.675Z,14.74
2022-11-17T13:01:02.997Z,14.87
2022-11-17T13:03:44.103Z,14.77
2022-11-17T13:09:07.751Z,14.82
2022-11-17T13:11:36.249Z,14.76
2022-11-17T13:14:12.402Z,14.59
2022-11-17T13:16:46.176Z,14.79
2022-11-17T13:19:34.126Z,14.85
2022-11-17T13:22:07.595Z,14.76
2022-11-17T13:24:38.528Z,14.61
2022-11-17T13:27:08.808Z,14.96
2022-11-17T13:29:41.169Z,14.97
2022-11-17T13:32:14.868Z,14.76
2022-11-17T13:34:51.909Z,14.81
2022-11-17T13:37:24.108Z,15.09
2022-11-17T13:40:01.146Z,15.05
2022-11-17T13:42:33.055Z,14.88
2022-11-17T13:45:07.851Z,14.95
2022-11-17T13:47:45.812Z,14.84
2022-11-17T13:50:37.301Z,14.84
2022-11-17T13:53:27.197Z,14.85
2022-11-17T13:55:55.161Z,14.98
2022-11-17T13:58:30.766Z,15.03
2022-11-17T14:01:00.118Z,14.81
2022-11-17T14:03:39.917Z,15.09
2022-11-17T14:06:10.141Z,14.73
2022-11-17T14:08:41.801Z,14.94
2022-11-17T14:11:21.489Z,15.13
2022-11-17T14:13:52.929Z,14.83
2022-11-17T14:16:25.152Z,14.75
2022-11-17T14:19:02.999Z,14.87
2022-11-17T14:21:32.311Z,14.99
2022-11-17T14:24:08.312Z,15.16
2022-11-17T14:26:36.378Z,15.16
2022-11-17T14:29:04.281Z,14.84
2022-11-17T14:31:34.390Z,15.19
2022-11-17T14:34:02.591Z,15.00
2022-11-17T14:36:33.094Z,14.77
2022-11-17T14:39:02.281Z,14.94
2022-11-17T14:41:32.628Z,15.20
2022-11-17T14:44:00.727Z,15.05
2022-11-17T14:46:28.881Z,15.15
2022-11-17T14:48:57.203Z,14.99
2022-11-17T14:51:25.705Z,14.96
2022-11-17T14:53:54.256Z,14.99
2022-11-17T14:56:24.548Z,15.14
2022-11-17T14:58:57.237Z,14.98
2022-11-17T15:01:29.177Z,15.03
2022-11-17T15:03:58.621Z,14.71
2022-11-17T15:06:29.627Z,15.16
2022-11-17T15:08:59.927Z,15.16
2022-11-17T15:11:31.928Z,14.97
2022-11-17T15:14:05.351Z,15.08
2022-11-17T15:16:34.245Z,15.15
2022-11-17T15:19:03.922Z,15.07
2022-11-17T15:21:32.003Z,15.07
2022-11-17T15:24:00.247Z,15.06
2022-11-17T15:26:28.690Z,14.99
2022-11-17T15:28:57.948Z,15.11
2022-11-17T15:31:27.722Z,14.89
2022-11-17T15:33:56.087Z,15.05
2022-11-17T15:36:24.760Z,14.96
2022-11-17T15:38:53.439Z,15.05
2022-11-17T15:41:21.822Z,15.05
2022-11-17T15:43:49.922Z,14.93
2022-11-17T15:46:20.116Z,15.00
2022-11-17T15:48:52.540Z,14.87
2022-11-17T15:51:22.681Z,14.94
2022-11-17T15:53:52.514Z,14.67
2022-11-17T15:56:22.032Z,14.93
2022-11-17T15:58:55.922Z,14.83
2022-11-17T16:06:50.009Z,14.47
2022-11-17T16:12:51.383Z,14.64
2022-11-17T16:15:32.289Z,14.74
2022-11-17T16:18:00.680Z,14.33
2022-11-17T17:49:36.274Z,13.97
2022-11-17T17:52:08.492Z,14.11
2022-11-17T17:54:41.319Z,14.20
2022-11-17T17:57:12.742Z,13.91
2022-11-17T17:59:41.351Z,13.72
2022-11-17T18:02:15.370Z,13.98
2022-11-17T18:04:45.310Z,13.76
2022-11-17T18:07:19.838Z,13.90
2022-11-17T18:09:48.452Z,13.88
2022-11-17T18:12:17.715Z,14.13
2022-11-17T18:14:47.251Z,13.61
2022-11-17T18:17:19.046Z,13.74
2022-11-17T18:19:54.321Z,13.69
2022-11-17T18:22:22.867Z,13.95
2022-11-17T18:24:58.393Z,13.64
2022-11-17T18:27:27.398Z,13.79
2022-11-17T18:29:55.981Z,13.95
2022-11-17T18:32:24.492Z,13.89
2022-11-17T18:34:54.619Z,13.93
2022-11-17T18:37:22.773Z,13.57
2022-11-17T18:39:51.350Z,13.68
2022-11-17T18:42:19.879Z,13.54
2022-11-17T18:44:49.801Z,13.48
2022-11-17T18:47:20.449Z,13.79
2022-11-17T18:49:52.688Z,13.65
2022-11-17T18:52:24.883Z,13.65
2022-11-17T21:29:36.603Z,13.08
2022-11-17T21:32:08.010Z,12.79
2022-11-17T21:34:38.733Z,13.02
2022-11-17T21:37:12.316Z,12.99
